x

Santa Monica Basin - 33nm Wsw Of Santa Monica, Ca (46025) Wave Buoy

2:50 - Fri 3rd Jul 2015 All times are PDT. -7 hours from GMT.

  • Sig Wave height 3.0ft
  • Swell Direction
  • Peak Period 15s
  • Average Period 6s
  • Wind
    2mph, 4mph gusts
  • Sea Temp 68°f
  • Air Temp 64°f
  • Sea Pressure 1014mb
  • Santa Monica Basin - 33nm Wsw Of Santa Monica, Ca
  • Santa Monica Basin - 33nm Wsw Of Santa Monica, Ca

More Historic Weather Station data

Upgrade to MSW Pro to gain access to the past 30 days of data for over 8000 Wavebouys and Weather Stations around the globe.

Join Pro

Comparision Forecast

View Surf forecast
   
ven. 07/03 2:50 3ft 15s 6s 2 4 mph 1014mb 68f 64f
1:50 3.5ft 14s 6s 7 9 mph 1013.7mb 69f 64f
12:50 3.5ft 15s 5s 9 11 mph 1014.1mb 69f 64f
jeu. 07/02 11:50 3.5ft 15s 6s 4 9 mph 1014.3mb 68f 64f
10:50 3.5ft 15s 5s 9 11 mph 1014.2mb 69f 63f
9:50 3ft 14s 5s 13
mph
1013.9mb 69f 63f
8:50 2.5ft 14s 6s 13 16 mph 1013.3mb 69f 66f
7:50 2.5ft 13s 5s 9 11 mph 1013.2mb 69f 66f
6:50 2.5ft 15s 6s 13 16 mph 1013.1mb 69f 65f
5:50 2.5ft 15s 6s 13 18 mph 1013.2mb 69f 65f
4:50 2.5ft 14s 7s 13 16 mph 1014.1mb 69f 65f
3:50 2.5ft 15s 7s 11 13 mph 1014.6mb 70f 66f
2:50 2.5ft 15s 8s 9 11 mph 1015.2mb 71f 66f
1:50 2.5ft 15s 7s 4 7 mph 1015.5mb 70f 67f
12:50 2.5ft 14s 7s 2 4 mph 1015.9mb 70f 66f
11:50 2.5ft 15s 7s 4
mph
1015.7mb 69f 65f
10:50 2ft 12s 6s 4
mph
1015.8mb 69f 65f
9:50 2.5ft 15s 7s 2 4 mph 1015.9mb 69f 65f
8:50 2.5ft 15s 6s 7 9 mph 1015.9mb 68f 65f
7:50 2.5ft 16s 7s 4
mph
1015.7mb 68f 65f
6:50 2.5ft 15s 7s 4
mph
1015.3mb 68f 65f
5:50 2.5ft 13s 7s 2 4 mph 1014.9mb 68f 65f
4:50 2.5ft 16s 7s 4 7 mph 1014.2mb 68f 65f
3:50 2.5ft 15s 7s 2 4 mph 1014.2mb 68f 65f
2:50 2.5ft 15s 7s 2 4 mph 1014.2mb 68f 65f
1:50 2.5ft 15s 6s 2 4 mph 1014.3mb 68f 65f
12:50 2.5ft 16s 6s 4 7 mph 1014.2mb 68f 65f
mer. 07/01 11:50 2.5ft 15s 6s 4 7 mph 1014mb 67f 65f
10:50 3ft 16s 6s  -  2 mph 1014.4mb 67f 65f
9:50 3ft 14s 6s 4 7 mph 1013.9mb 67f 65f
8:50 2.5ft 14s 6s 2 4 mph 1013.5mb 66f 65f
7:50 3ft 16s 6s 4 7 mph 1013.2mb 66f 65f
6:50 2.5ft 14s 6s 11
mph
1012.2mb 66f 65f
5:50 2.5ft 16s 6s 11 13 mph 1012.1mb 66f 65f
4:50 2.5ft 16s 7s 11 13 mph 1012.1mb 67f 66f
3:50 2.5ft 15s 7s 11
mph
1012.8mb 67f 66f
2:50 2.5ft 14s 7s 9
mph
1013mb 67f 66f
1:50 2.5ft 15s 7s 9 11 mph 1013mb 66f 65f
12:50 2.5ft 13s 6s 4
mph
1013.6mb 66f 65f
11:50  -   -   -  2 4 mph 1013.7mb 66f 65f
10:50 2.5ft 14s 6s 4
mph
1013.6mb 66f 65f
9:50 3ft 14s 6s 7
mph
1013.5mb 66f 65f
8:50 3ft 16s 6s 13
mph
1012.6mb 66f 64f
7:50 3ft 16s 6s 9 11 mph 1012.6mb 66f 65f
6:50 3ft 8s 6s 9
mph
1012.9mb 66f 65f
5:50 3ft 16s 6s 2 4 mph 1013.1mb 66f 65f
4:50 3.5ft 8s 6s 7 9 mph 1012.5mb 66f 65f
3:50 3.5ft 8s 6s 2
mph
1011.6mb 66f 64f
2:50 3.5ft 8s 6s 4 7 mph 1011mb 66f 65f
1:50 3.5ft 8s 6s 9 11 mph 1010.4mb 66f 65f
12:50  -   -   -  9 11 mph 1011mb 67f 65f
mar. 06/30 11:50 3ft 13s 6s 13 16 mph 1010.9mb 67f 65f
10:50 3.5ft 13s 6s 11 13 mph 1011.1mb 67f 66f
9:50 3.5ft 8s 6s 7 9 mph 1010.8mb 67f 67f
8:50 3.5ft 8s 6s 7
mph
1010.1mb 67f 67f
7:50 3ft 7s 5s 7 9 mph 1009.9mb 67f 67f
6:50 3ft 14s 6s 22 27 mph 1007.6mb 68f 67f
5:50 3ft 7s 6s 9 13 mph 1010.4mb 69f 67f
4:50 3ft 13s 7s 13 16 mph 1013.8mb 71f 69f
3:50 3ft 17s 6s 2 4 mph 1012.6mb 72f 68f
2:50 3ft 14s 6s 2 4 mph 1012.3mb 71f 67f
1:50 3ft 7s 6s 2 4 mph 1012.4mb 70f 66f
12:50 3ft 14s 6s 2 4 mph 1012.8mb 70f 65f
11:50 2.5ft 7s 6s 4 7 mph 1012.9mb 69f 65f
10:50 3ft 7s 6s 2
mph
1012.8mb 67f 65f
9:50 3ft 17s 6s 4 7 mph 1012.4mb 66f 65f
8:50 3.5ft 6s 5s 4 7 mph 1012.6mb 66f 64f
7:50 3.5ft 6s 6s 7 9 mph 1012.3mb 66f 64f
6:50 3.5ft 7s 6s 7
mph
1011.9mb 66f 63f
5:50 3.5ft 6s 6s 7 9 mph 1011.6mb 67f 64f
4:50 3.5ft 7s 6s 4
mph
1011.7mb 67f 64f
3:50 4ft 6s 6s 4
mph
1011.9mb 67f 64f
2:50 4ft 7s 6s 2 4 mph 1011.8mb 67f 64f
1:50 4ft 7s 6s 2 4 mph 1012mb 67f 65f
12:50 3.5ft 7s 6s  -  2 mph 1012.2mb 67f 65f
lun. 06/29 11:50  -   -   -  2
mph
1012.6mb 67f 65f
10:50 3.5ft 15s 6s 4
mph
1012.8mb 67f 65f
9:50 3.5ft 7s 5s 4 7 mph 1012.2mb 67f 66f
8:50 3.5ft 15s 5s 7
mph
1011.5mb 68f 66f
7:50 3ft 6s 5s 4 7 mph 1011.1mb 68f 66f
6:50 3.5ft 14s 6s 4 7 mph 1011mb 69f 66f
5:50 3.5ft 15s 6s 9 11 mph 1011mb 69f 66f
4:50 3ft 15s 6s 7 9 mph 1011.4mb 69f 67f
3:50 3.5ft 15s 6s 7 9 mph 1011.9mb 70f 66f
2:50 3.5ft 14s 6s 4 7 mph 1012.2mb 70f 67f
1:50 3.5ft 15s 6s 4
mph
1012.7mb 69f 66f
12:50 3.5ft 15s 6s 4 7 mph 1013.1mb 69f 65f
11:50 3.5ft 15s 5s 9 11 mph 1013mb 68f 64f